Tiempo atmosférico en la estación meteorológica de Teruel, Santa Eulalia del Campo, Teruel (1000 m.)



Fecha
DESCASC
Temp. máxima en grados centígrados (hora)
DESCASC
Temp. mínima en grados centígrados (hora)
DESCASC
Temp. media en grados centígrados
DESCASC
Racha de viento máxima en m/sg (hora)
DESCASC
Velocidad máxima media en intervalos de 10 minutos(hora)
DESCASC
Precipitaciones diarias en mm
DESCASC
Precipitaciones de 00:00 a 06:00 en mm
DESCASC
Precipitaciones de 06:00 a 12:00 en mm
DESCASC
Precipitaciones de 12:00 a 18:00 en mm
DESCASC
Precipitaciones de 18:00 a 24:00 en mm
DESCASC

Gráficas

Temp. máximas Temp. mínimas Temp. medias Precipitaciones Rachas de viento máximas Velocidades máximas media en intervalos de 10 minutos

Datos horarios

Fecha y hora oficial Temperatura (ºC) Velocidad del viento (km/h) Dirección del viento Racha (km/h) Dirección de racha Precipitación (mm) Presión (hPa) Tendencia (hPa) Humedad (%)
2019-12-10 23:00:00 -0.6 0 Calma -- -- 0 -- -- 94
2019-12-10 22:00:00 0 0 Calma 6 Sur 0 -- -- 95
2019-12-10 21:00:00 1.1 0 Calma 3 Sudeste 0 -- -- 93
2019-12-10 20:00:00 2.5 0 Calma 5 Oeste 0 -- -- 87
2019-12-10 19:00:00 5.5 6 Noroeste 11 Noroeste 0 -- -- 75
2019-12-10 18:00:00 5.9 4 Oeste 8 Sudoeste 0 -- -- 76
2019-12-10 17:00:00 8 4 Sudoeste 8 Norte 0 -- -- 69
2019-12-10 16:00:00 11.3 6 Nordeste 9 Norte 0 -- -- 51
2019-12-10 15:00:00 11.7 3 Norte 8 Nordeste 0 -- -- 51
2019-12-10 14:00:00 10 0 Calma 12 Norte 0 -- -- 55
2019-12-10 13:00:00 9 6 Nordeste 14 Norte 0 -- -- 60
2019-12-10 12:00:00 6.2 8 Norte 14 Nordeste 0 -- -- 73
2019-12-10 11:00:00 4.6 12 Nordeste 25 Nordeste 0 -- -- 81
2019-12-10 10:00:00 1.9 16 Norte 22 Norte 0 -- -- 89
2019-12-10 09:00:00 0.5 17 Norte 23 Norte 0 -- -- 91
2019-12-10 08:00:00 -0.4 16 Norte 22 Norte 0 -- -- 93
2019-12-10 07:00:00 -0.7 15 Norte 19 Norte 0 -- -- 94
2019-12-10 06:00:00 -1.1 11 Norte 17 Norte 0 -- -- 96
2019-12-10 05:00:00 -1.2 7 Norte 14 Norte 0 -- -- 96
2019-12-10 04:00:00 -0.1 10 Norte 18 Norte 0 -- -- 94
2019-12-10 03:00:00 -0.5 11 Norte 18 Norte 0 -- -- 96
2019-12-10 02:00:00 -0.2 11 Norte 16 Nordeste 0 -- -- 95
2019-12-10 01:00:00 0 5 Norte 16 Nordeste 0 -- -- 95
2019-12-10 00:00:00 0.7 9 Norte 14 Norte 0 -- -- 93
2019-12-09 23:00:00 1.1 8 Nordeste 18 Nordeste 0 -- -- 93
2019-12-09 22:00:00 2.5 5 Nordeste 29 Norte 0 -- -- 87
2019-12-09 21:00:00 4.9 17 Norte 28 Norte 0 -- -- 79
2019-12-09 20:00:00 4.4 5 Nordeste 27 Norte 0 -- -- 81
2019-12-09 19:00:00 5.7 16 Noroeste 26 Noroeste 0 -- -- 74
2019-12-09 18:00:00 6.3 18 Noroeste 28 Norte 0 -- -- 68
2019-12-09 17:00:00 7.5 20 Norte 40 Norte 0 -- -- 64
2019-12-09 16:00:00 9.5 23 Norte 39 Norte 0 -- -- 57
2019-12-09 15:00:00 10 31 Norte 57 Norte 0 -- -- 57
2019-12-09 14:00:00 9.8 37 Norte 54 Norte 0 -- -- 56
2019-12-09 13:00:00 8.9 32 Norte 49 Norte 0 -- -- 68
2019-12-09 12:00:00 7.5 30 Norte 41 Norte 0 -- -- 80
2019-12-09 11:00:00 6.7 24 Nordeste 33 Nordeste 0 -- -- 78
2019-12-09 10:00:00 2.9 5 Sudoeste 10 Sur 0 -- -- 96
2019-12-09 09:00:00 0.3 4 Sur 9 Sudoeste 0 -- -- 99
2019-12-09 08:00:00 -0.4 0 Calma 8 Noroeste 0 -- -- 100
2019-12-09 07:00:00 0.3 0 Calma 8 Norte 0 -- -- 97
2019-12-09 06:00:00 2.1 6 Norte 10 Norte 0 -- -- 95
2019-12-09 05:00:00 1.6 0 Calma 12 Noroeste 0 -- -- 97
2019-12-09 04:00:00 4 10 Norte 19 Norte 0 -- -- 91
2019-12-09 03:00:00 5.4 13 Norte 21 Norte 0 -- -- 91
2019-12-09 02:00:00 5.4 13 Norte 22 Norte 0 -- -- 96
2019-12-09 01:00:00 6.5 18 Norte 26 Norte 0 -- -- 93
2019-12-09 00:00:00 7.2 15 Norte 37 Norte 0 -- -- 92
2019-12-08 23:00:00 7.2 14 Nordeste 26 Norte 0 -- -- 94
2019-12-08 22:00:00 7 4 Nordeste 15 Nordeste 0.2 -- -- 98
2019-12-08 21:00:00 7.2 10 Nordeste 18 Nordeste 0.6 -- -- 97
2019-12-08 20:00:00 7.4 14 Nordeste 26 Nordeste 0 -- -- 94
2019-12-08 19:00:00 8.3 14 Nordeste 26 Nordeste 0 -- -- 84
2019-12-08 18:00:00 9.3 9 Nordeste 17 Nordeste 0 -- -- 82
2019-12-08 17:00:00 10 10 Nordeste 24 Norte 0 -- -- 78
2019-12-08 16:00:00 11.3 18 Norte 32 Norte 0 -- -- 72
2019-12-08 15:00:00 11.4 22 Norte 33 Norte 0 -- -- 69
2019-12-08 14:00:00 13.1 0 Calma 7 Sur 0 -- -- 62
2019-12-08 13:00:00 10.5 3 Sur 6 Oeste 0 -- -- 68
2019-12-08 12:00:00 8.8 0 Calma 5 Sudoeste 0 -- -- 72
2019-12-08 11:00:00 5 0 Calma 8 Sur 0 -- -- 82
2019-12-08 10:00:00 1.3 3 Sudeste 6 Sudeste 0 -- -- 94
2019-12-08 09:00:00 -1.3 0 Calma 6 Este 0 -- -- 100
2019-12-08 08:00:00 -1.6 0 Calma -- -- 0 -- -- 100
2019-12-08 07:00:00 -1.7 0 Calma 7 Sur 0 -- -- 100
2019-12-08 06:00:00 -1.9 0 Calma -- -- 0 -- -- 100
2019-12-08 05:00:00 -1.6 0 Calma -- -- 0 -- -- 100
2019-12-08 04:00:00 -1.9 0 Calma -- -- 0 -- -- 100
2019-12-08 03:00:00 -1.2 0 Calma -- -- 0 -- -- 100
2019-12-08 02:00:00 -0.7 0 Calma -- -- 0 -- -- 100
2019-12-08 01:00:00 -0.7 0 Calma -- -- 0 -- -- 99
2019-12-08 00:00:00 0.2 0 Calma -- -- 0 -- -- 100
2019-12-07 23:00:00 0.6 0 Calma 6 Noroeste 0 -- -- 98
2019-12-07 22:00:00 1.9 0 Calma 9 Noroeste 0 -- -- 98
2019-12-07 21:00:00 4.1 5 Noroeste 13 Noroeste 0 -- -- 93
2019-12-07 20:00:00 4.7 7 Noroeste 18 Noroeste 0 -- -- 93
2019-12-07 19:00:00 5.8 14 Noroeste 18 Noroeste 0 -- -- 89
2019-12-07 18:00:00 6.4 5 Noroeste 9 Noroeste 0 -- -- 88
2019-12-07 17:00:00 9.9 4 Norte 6 Norte 0 -- -- 77
2019-12-07 16:00:00 11.6 4 Sudoeste 8 Sudoeste 0 -- -- 66
2019-12-07 15:00:00 11.8 4 Sudoeste 9 Sudoeste 0 -- -- 68
2019-12-07 14:00:00 11.5 3 Sudeste 8 Este 0 -- -- 68
2019-12-07 13:00:00 9.2 2 Nordeste 7 Norte 0 -- -- 77
2019-12-07 12:00:00 5.6 3 Norte 8 Nordeste 0 -- -- 90
2019-12-07 11:00:00 1.7 0 Calma 12 Sur 0 -- -- 99
2019-12-07 10:00:00 -0.7 8 Sur 12 Sur 0 -- -- 100
2019-12-07 09:00:00 -1.9 7 Sur 13 Sur 0 -- -- 100
2019-12-07 08:00:00 -1.1 8 Sur 12 Sur 0 -- -- 100
2019-12-07 07:00:00 -1.6 6 Sur 12 Sur 0 -- -- 100
2019-12-07 06:00:00 -1.1 8 Sur 12 Sur 0 -- -- 100
2019-12-07 05:00:00 -0.4 4 Sur 9 Sur 0 -- -- 100
2019-12-07 04:00:00 -0.9 2 Sudoeste 7 Sudoeste 0 -- -- 100
2019-12-07 03:00:00 -0.6 5 Sur 10 Sur 0 -- -- 100
2019-12-07 02:00:00 0.1 0 Calma -- -- 0 -- -- 99
2019-12-07 01:00:00 0.6 0 Calma -- -- 0 -- -- 100
2019-12-07 00:00:00 0.8 0 Calma -- -- 0 -- -- 99
2019-12-06 23:00:00 1.3 0 Calma -- -- 0 -- -- 98
2019-12-06 22:00:00 2.1 0 Calma 4 Sur 0 -- -- 98
2019-12-06 21:00:00 2.9 3 Sur 8 Sur 0 -- -- 97
2019-12-06 20:00:00 3.6 0 Calma 8 Sudoeste 0 -- -- 94
2019-12-06 19:00:00 5.3 5 Sudoeste 9 Sudoeste 0 -- -- 90
2019-12-06 18:00:00 6.8 4 Sudoeste 12 Sur 0 -- -- 85
2019-12-06 17:00:00 9.3 8 Sur 18 Sur 0 -- -- 75
2019-12-06 16:00:00 10.6 11 Sur 17 Sur 0 -- -- 71
2019-12-06 15:00:00 10.7 7 Sur 14 Sur 0 -- -- 70
2019-12-06 14:00:00 9.5 6 Sudoeste 14 Sur 0 -- -- 72
2019-12-06 13:00:00 9.6 4 Sur 9 Sur 0 -- -- 78
2019-12-06 12:00:00 7.5 0 Calma 10 Norte 0 -- -- 87
2019-12-06 11:00:00 6.1 6 Norte 13 Norte 0 -- -- 94
2019-12-06 10:00:00 5.2 6 Nordeste 10 Norte 0 -- -- 96
2019-12-06 09:00:00 4.3 3 Nordeste 8 Nordeste 0 -- -- 98
2019-12-06 08:00:00 4.4 5 Nordeste 13 Norte 0 -- -- 98
2019-12-06 07:00:00 4.5 8 Norte 14 Norte 0 -- -- 97
2019-12-06 06:00:00 4.4 10 Norte 15 Nordeste 0 -- -- 97
2019-12-06 05:00:00 4.6 8 Norte 13 Norte 0 -- -- 97
2019-12-06 04:00:00 4.6 9 Norte 17 Norte 0 -- -- 96
2019-12-06 03:00:00 4.5 11 Norte 21 Norte 0 -- -- 96
2019-12-06 02:00:00 4.7 13 Norte 19 Norte 0 -- -- 96
2019-12-06 01:00:00 4.8 13 Norte 20 Norte 0 -- -- 97
2019-12-06 00:00:00 4.9 15 Norte 23 Norte 0 -- -- 96
2019-12-05 23:00:00 5.3 11 Norte 17 Norte 0 -- -- 95
2019-12-05 22:00:00 5.3 12 Norte 18 Norte 0 -- -- 98
2019-12-05 21:00:00 5.2 8 Norte 15 Norte 0 -- -- 97
2019-12-05 20:00:00 5 10 Norte 18 Norte 0 -- -- 97
2019-12-05 19:00:00 5.2 12 Norte 20 Norte 0 -- -- 96
2019-12-05 18:00:00 5.1 13 Norte 19 Norte 0 -- -- 97
2019-12-05 17:00:00 5.2 12 Norte 22 Norte 0 -- -- 95
2019-12-05 16:00:00 5.2 17 Norte 26 Norte 0 -- -- 96
2019-12-05 15:00:00 6.1 15 Norte 24 Norte 0 -- -- 93
2019-12-05 14:00:00 5.4 19 Norte 27 Norte 0 -- -- 93
2019-12-05 13:00:00 5.1 19 Norte 30 Norte 0 -- -- 94
2019-12-05 12:00:00 5 21 Norte 32 Norte 0 -- -- 95
2019-12-05 11:00:00 4.2 17 Norte 30 Norte 0 -- -- 96
2019-12-05 10:00:00 3.5 22 Norte 30 Norte 0 -- -- 97
2019-12-05 09:00:00 3.4 20 Norte 31 Norte 0 -- -- 97
2019-12-05 08:00:00 3.2 21 Norte 32 Norte 0 -- -- 99
2019-12-05 07:00:00 3.3 24 Norte 35 Norte 0 -- -- 99
2019-12-05 06:00:00 3.7 22 Norte 31 Norte 0 -- -- 97
2019-12-05 05:00:00 3.8 19 Norte 32 Nordeste 0 -- -- 98
2019-12-05 04:00:00 3.7 21 Norte 32 Norte 0 -- -- 98
2019-12-05 03:00:00 3.5 22 Norte 36 Nordeste 0 -- -- 98
2019-12-05 02:00:00 3.5 24 Norte 37 Nordeste 0 -- -- 98
2019-12-05 01:00:00 3.4 27 Norte 43 Norte 0 -- -- 97
2019-12-05 00:00:00 3.4 25 Norte 44 Norte 0 -- -- 97
2019-12-04 23:00:00 3.9 32 Norte 45 Norte 0.4 -- -- 96
2019-12-04 22:00:00 4.5 23 Norte 34 Norte 0.6 -- -- 97
2019-12-04 21:00:00 4.6 21 Norte 41 Norte 0.4 -- -- 97
2019-12-04 20:00:00 4.9 22 Norte 32 Norte 0.4 -- -- 98
2019-12-04 19:00:00 4.8 24 Norte 38 Norte 0.2 -- -- 96
2019-12-04 18:00:00 4.8 23 Norte 33 Nordeste 0 -- -- 94
2019-12-04 17:00:00 5 19 Norte 29 Norte 0 -- -- 94
2019-12-04 16:00:00 6.2 15 Nordeste 28 Norte 0 -- -- 88
2019-12-04 15:00:00 6.2 14 Nordeste 37 Norte 0 -- -- 90
2019-12-04 14:00:00 4.6 26 Norte 37 Norte 0 -- -- 96
2019-12-04 13:00:00 4.8 18 Norte 35 Nordeste 0 -- -- 94
2019-12-04 12:00:00 4.8 25 Nordeste 36 Nordeste 0 -- -- 96
2019-12-04 11:00:00 3.8 22 Norte 35 Nordeste 0 -- -- 98
2019-12-04 10:00:00 2.9 21 Norte 31 Norte 0.2 -- -- 100
2019-12-04 09:00:00 2.3 18 Norte 26 Norte 0.4 -- -- 100
2019-12-04 08:00:00 2 17 Norte 23 Norte 0 -- -- 99
2019-12-04 07:00:00 1.7 14 Norte 30 Norte 0 -- -- 99
2019-12-04 06:00:00 1.5 16 Norte 27 Norte 0 -- -- 99
2019-12-04 05:00:00 1.7 16 Norte 26 Norte 0 -- -- 99
2019-12-04 04:00:00 1.6 17 Norte 25 Norte 0 -- -- 97
2019-12-04 03:00:00 1.5 18 Norte 28 Norte 0 -- -- 96
2019-12-04 02:00:00 1.8 21 Norte 30 Norte 0 -- -- 93
2019-12-04 01:00:00 1.6 20 Norte 29 Norte 0 -- -- 92
2019-12-04 00:00:00 1.6 17 Norte 28 Norte 0.2 -- -- 93
2019-12-03 23:00:00 1.4 16 Norte 21 Norte 0.6 -- -- 94
2019-12-03 22:00:00 0.7 14 Norte 23 Norte 0.8 -- -- 94
2019-12-03 21:00:00 1.8 15 Norte 21 Norte 0.2 -- -- 92
2019-12-03 20:00:00 1.2 12 Norte 17 Norte 1.6 -- -- 95
2019-12-03 19:00:00 2.4 13 Norte 27 Norte 0 -- -- 89
2019-12-03 18:00:00 2.6 17 Norte 24 Norte 0 -- -- 86
2019-12-03 17:00:00 3.4 15 Norte 24 Norte 0 -- -- 84
2019-12-03 16:00:00 3.8 15 Norte 24 Norte 0 -- -- 81
2019-12-03 15:00:00 3.4 14 Norte 21 Norte 0 -- -- 83
2019-12-03 14:00:00 3.3 11 Norte 17 Norte 0 -- -- 82
2019-12-03 13:00:00 3 8 Norte 14 Noroeste 0 -- -- 82
2019-12-03 12:00:00 2.2 9 Norte 14 Norte 0 -- -- 86
2019-12-03 11:00:00 1.3 4 Norte 11 Nordeste 0 -- -- 87
2019-12-03 10:00:00 1 4 Norte 10 Norte 0 -- -- 90
2019-12-03 09:00:00 0.5 8 Norte 19 Norte 0 -- -- 92
2019-12-03 08:00:00 0.1 14 Norte 20 Norte 0 -- -- 92
2019-12-03 07:00:00 0.2 12 Norte 18 Norte 0 -- -- 92
2019-12-03 06:00:00 0 12 Norte 21 Norte 0 -- -- 92
2019-12-03 05:00:00 0.1 16 Norte 24 Norte 0 -- -- 91
2019-12-03 04:00:00 -0.4 13 Norte 23 Norte 0 -- -- 91
2019-12-03 03:00:00 0 16 Norte 24 Norte 0 -- -- 90
2019-12-03 02:00:00 0.7 15 Norte 25 Norte 0 -- -- 92
2019-12-03 01:00:00 1.8 15 Norte 26 Norte 0 -- -- 89
2019-12-03 00:00:00 1.8 19 Norte 28 Norte 0 -- -- 89
2019-12-02 23:00:00 2.7 19 Norte 28 Norte 0 -- -- 89
2019-12-02 22:00:00 3.2 17 Norte 35 Norte 0 -- -- 89
2019-12-02 21:00:00 3.7 22 Norte 35 Norte 0 -- -- 88
2019-12-02 20:00:00 4.3 21 Norte 31 Norte 0 -- -- 85
2019-12-02 19:00:00 4.7 24 Norte 34 Norte 0 -- -- 87
2019-12-02 18:00:00 5.2 19 Norte 31 Norte 0 -- -- 85
2019-12-02 17:00:00 5.5 20 Norte 32 Norte 0 -- -- 82
2019-12-02 16:00:00 6.4 21 Norte 32 Norte 0 -- -- 78
2019-12-02 15:00:00 6.1 23 Norte 32 Norte 0 -- -- 82
2019-12-02 14:00:00 6.1 22 Norte 32 Norte 0 -- -- 83
2019-12-02 13:00:00 5.5 16 Norte 27 Norte 0 -- -- 85
2019-12-02 12:00:00 5.4 19 Norte 32 Norte 0 -- -- 87
2019-12-02 11:00:00 4.6 15 Norte 23 Norte 0 -- -- 92
2019-12-02 10:00:00 3.9 14 Norte 23 Norte 0 -- -- 94
2019-12-02 09:00:00 3.6 16 Norte 26 Norte 0 -- -- 94
2019-12-02 08:00:00 3.6 18 Norte 25 Norte 0 -- -- 94
2019-12-02 07:00:00 3.6 16 Norte 26 Norte 0 -- -- 94
2019-12-02 06:00:00 3.6 17 Norte 25 Norte 0 -- -- 94
2019-12-02 05:00:00 3.8 17 Norte 26 Norte 0 -- -- 94
2019-12-02 04:00:00 4.1 16 Norte 22 Norte 0 -- -- 93
2019-12-02 03:00:00 4 13 Norte 19 Norte 0 -- -- 93
2019-12-02 02:00:00 3.9 15 Norte 21 Norte 0 -- -- 92
2019-12-02 01:00:00 4 9 Norte 17 Norte 0 -- -- 90
2019-12-02 00:00:00 4.1 11 Norte 16 Norte 0 -- -- 90
2019-12-01 23:00:00 4.3 9 Norte 13 Norte 0 -- -- 90
2019-12-01 22:00:00 4.3 6 Nordeste 9 Nordeste 0 -- -- 91
2019-12-01 21:00:00 4.8 8 Norte 12 Norte 0 -- -- 86
2019-12-01 20:00:00 4.5 8 Noroeste 13 Norte 0 -- -- 87
2019-12-01 19:00:00 4.9 9 Norte 14 Norte 0 -- -- 87
2019-12-01 18:00:00 5.7 9 Norte 13 Norte 0 -- -- 83
2019-12-01 17:00:00 7.6 8 Norte 15 Nordeste 0 -- -- 74
2019-12-01 16:00:00 8.3 7 Nordeste 12 Este 0 -- -- 72
2019-12-01 15:00:00 10.6 4 Nordeste 10 Sudeste 0 -- -- 62
2019-12-01 14:00:00 9.6 0 Calma 12 Sudoeste 0 -- -- 63
2019-12-01 13:00:00 7.5 5 Sudoeste 11 Sudoeste 0 -- -- 80
2019-12-01 12:00:00 3.7 6 Sudoeste 12 Sur 0 -- -- 98
2019-12-01 11:00:00 3.1 5 Sur 10 Oeste 0 -- -- 98
2019-12-01 10:00:00 2.7 0 Calma -- -- 0 -- -- 99
2019-12-01 09:00:00 2.2 0 Calma 8 Noroeste 0 -- -- 99
2019-12-01 08:00:00 2.4 4 Noroeste 9 Noroeste 0 -- -- 97
2019-12-01 07:00:00 2.9 6 Sur 13 Sudoeste 0 -- -- 97
2019-12-01 06:00:00 2.9 0 Calma 5 Sur 0 -- -- 97
2019-12-01 05:00:00 2.7 0 Calma 9 Sudoeste 0 -- -- 95
2019-12-01 04:00:00 3.5 3 Sudoeste 9 Sur 0 -- -- 95
2019-12-01 03:00:00 3.7 4 Sudoeste 7 Sur 0.2 -- -- 95
2019-12-01 02:00:00 3.6 0 Calma 12 Norte 0.6 -- -- 94
2019-12-01 01:00:00 3.8 9 Norte 23 Norte 1 -- -- 92
2019-12-01 00:00:00 3.7 18 Norte 48 Norte 1.2 -- -- 92
2019-11-30 23:00:00 6.9 31 Norte 44 Nordeste 0 -- -- 89
2019-11-30 22:00:00 7.9 6 Sur 17 Sur 0 -- -- 87
2019-11-30 21:00:00 9.9 8 Sur 19 Sudeste 0 -- -- 77
2019-11-30 20:00:00 10.1 12 Sur 22 Sur 0 -- -- 72
2019-11-30 19:00:00 10.5 9 Sur 18 Sur 0 -- -- 70
2019-11-30 18:00:00 11.1 9 Sur 23 Sudoeste 0 -- -- 67
2019-11-30 17:00:00 13.2 12 Sudoeste 29 Oeste 0 -- -- 59
2019-11-30 16:00:00 15.1 12 Oeste 27 Oeste 0 -- -- 53
2019-11-30 15:00:00 16.1 17 Oeste 32 Oeste 0 -- -- 51
2019-11-30 14:00:00 16.2 13 Oeste 33 Oeste 0 -- -- 50
2019-11-30 13:00:00 16.3 2 Este 11 Este 0 -- -- 54
2019-11-30 12:00:00 15.3 2 Nordeste 10 Sur 0 -- -- 62
2019-11-30 11:00:00 11.8 6 Sur 12 Sur 0 -- -- 80
2019-11-30 10:00:00 8.7 6 Sur 9 Sur 0 -- -- 89
2019-11-30 09:00:00 5.2 5 Sur 11 Sur 0 -- -- 99
2019-11-30 08:00:00 5.5 8 Sur 13 Sudoeste 0 -- -- 95
2019-11-30 07:00:00 5.5 8 Sudoeste 14 Sudoeste 0 -- -- 96
2019-11-30 06:00:00 4.9 0 Calma -- -- 0 -- -- 98
2019-11-30 05:00:00 5.3 0 Calma 10 Oeste 0 -- -- 93
2019-11-30 04:00:00 5.9 0 Calma 6 Sudeste 0 -- -- 92
2019-11-30 03:00:00 7.5 0 Calma 9 Oeste 0 -- -- 92
2019-11-30 02:00:00 8 0 Calma 5 Sudeste 0 -- -- 91
2019-11-30 01:00:00 9.2 3 Sur 7 Sur 0 -- -- 87
2019-11-30 00:00:00 9.3 4 Oeste 8 Sudoeste 0 -- -- 88
2019-11-29 23:00:00 9.6 0 Calma -- -- 0 -- -- 86
2019-11-29 22:00:00 9.9 0 Calma 6 Oeste 0 -- -- 84
2019-11-29 21:00:00 9.8 0 Calma 6 Noroeste 0 -- -- 84
2019-11-29 20:00:00 11 4 Oeste 11 Noroeste 0 -- -- 78
2019-11-29 19:00:00 12.1 10 Norte 14 Norte 0 -- -- 74
2019-11-29 18:00:00 12.4 9 Noroeste 15 Noroeste 0 -- -- 72
2019-11-29 17:00:00 13.6 12 Noroeste 24 Noroeste 0 -- -- 65
2019-11-29 16:00:00 13.9 15 Noroeste 26 Noroeste 0 -- -- 60
2019-11-29 15:00:00 15.8 12 Norte 22 Noroeste 0 -- -- 54
2019-11-29 14:00:00 15.9 9 Noroeste 26 Norte 0 -- -- 54
2019-11-29 13:00:00 15 20 Noroeste 28 Noroeste 0 -- -- 57
2019-11-29 12:00:00 14.7 6 Nordeste 14 Norte 0 -- -- 67
2019-11-29 11:00:00 12.9 4 Nordeste 11 Nordeste 0 -- -- 75
2019-11-29 10:00:00 10 0 Calma 3 Sur 0 -- -- 85
2019-11-29 09:00:00 8.7 0 Calma 10 Oeste 0 -- -- 86
2019-11-29 08:00:00 8.4 0 Calma 5 Sudoeste 0 -- -- 86
2019-11-29 07:00:00 9.2 0 Calma 19 Noroeste 0 -- -- 81
2019-11-29 06:00:00 8.7 0 Calma -- -- 0 -- -- 84
2019-11-29 05:00:00 9.4 0 Calma 10 Noroeste 0 -- -- 79
2019-11-29 04:00:00 9.5 2 Noroeste 16 Norte 0 -- -- 78
2019-11-29 03:00:00 9 0 Calma 15 Este 0 -- -- 78
2019-11-29 02:00:00 8.5 4 Sur 11 Sudeste 0 -- -- 81
2019-11-29 01:00:00 8 2 Oeste 10 Sur 0 -- -- 82
2019-11-29 00:00:00 8.9 5 Sur 13 Sur 0 -- -- 77
2019-11-28 23:00:00 7.3 3 Sudoeste 14 Sudeste 0 -- -- 80
2019-11-28 22:00:00 7.6 0 Calma 12 Sur 0 -- -- 79
2019-11-28 21:00:00 7.9 0 Calma 6 Sur 0 -- -- 74
2019-11-28 20:00:00 7.4 0 Calma 5 Oeste 0 -- -- 76
2019-11-28 19:00:00 8.7 6 Noroeste 15 Noroeste 0 -- -- 69
2019-11-28 18:00:00 9.5 12 Oeste 29 Oeste 0 -- -- 66
2019-11-28 17:00:00 10.8 7 Sudoeste 40 Oeste 0 -- -- 61
2019-11-28 16:00:00 11.9 9 Noroeste 30 Noroeste 0 -- -- 57
2019-11-28 15:00:00 12.2 6 Oeste 22 Oeste 0 -- -- 59
2019-11-28 14:00:00 13.1 8 Norte 12 Norte 0 -- -- 58
2019-11-28 13:00:00 12.7 3 Sudeste 31 Noroeste 0 -- -- 59
2019-11-28 12:00:00 11.7 17 Noroeste 31 Noroeste 0 -- -- 62
2019-11-28 11:00:00 11.3 14 Noroeste 27 Noroeste 0 -- -- 62
2019-11-28 10:00:00 8.1 5 Sudoeste 10 Sudoeste 0 -- -- 75
2019-11-28 09:00:00 6.2 6 Sur 12 Sur 0 -- -- 79
2019-11-28 08:00:00 4.5 4 Nordeste 12 Noroeste 0 -- -- 83
2019-11-28 07:00:00 3.6 2 Sur 9 Sudoeste 0 -- -- 86
2019-11-28 06:00:00 4.4 0 Calma -- -- 0 -- -- 85
2019-11-28 05:00:00 5.2 0 Calma 34 Noroeste 0 -- -- 83
2019-11-28 04:00:00 7.9 11 Oeste 27 Noroeste 0 -- -- 70
2019-11-28 03:00:00 8.6 13 Noroeste 33 Oeste 0 -- -- 68
2019-11-28 02:00:00 7.8 4 Este 18 Noroeste 0 -- -- 72
2019-11-28 01:00:00 8 9 Oeste 17 Oeste 0 -- -- 72
2019-11-28 00:00:00 6.3 6 Oeste 21 Oeste 0 -- -- 76
2019-11-27 23:00:00 7.4 8 Oeste 18 Noroeste 0 -- -- 73
2019-11-27 22:00:00 8.4 10 Oeste 20 Noroeste 0 -- -- 71
2019-11-27 21:00:00 8.5 5 Oeste 24 Sudoeste 0 -- -- 69
2019-11-27 20:00:00 8.6 4 Sudoeste 10 Sur 0 -- -- 65
2019-11-27 19:00:00 9.1 4 Noroeste 23 Noroeste 0 -- -- 62
2019-11-27 18:00:00 8.1 5 Oeste 23 Noroeste 0 -- -- 67
2019-11-27 17:00:00 10 14 Noroeste 27 Noroeste 0 -- -- 58
2019-11-27 16:00:00 11.5 15 Oeste 33 Oeste 0 -- -- 52
2019-11-27 15:00:00 12.5 16 Noroeste 30 Noroeste 0 -- -- 51
2019-11-27 14:00:00 13.7 13 Oeste 32 Noroeste 0 -- -- 50
2019-11-27 06:00:00 -- -- -- -- -- -- -- -- --
2019-11-27 05:00:00 10.1 13 Oeste 29 Noroeste 0 -- -- 74
2019-11-27 04:00:00 10.2 9 Oeste 24 Oeste 0 -- -- 73
2019-11-27 03:00:00 10.7 7 Oeste 24 Noroeste 0 -- -- 72
2019-11-27 02:00:00 11.4 5 Noroeste 28 Noroeste 0 -- -- 68
2019-11-27 01:00:00 12.2 10 Noroeste 33 Oeste 0 -- -- 70
2019-11-27 00:00:00 13 16 Oeste 37 Oeste 0 -- -- 67
2019-11-26 23:00:00 9.9 3 Sudoeste 20 Sudoeste 0 -- -- 88
2019-11-26 22:00:00 10.9 8 Sudoeste 20 Sur 0 -- -- 85
2019-11-26 21:00:00 10.9 11 Sudoeste 24 Sur 0 -- -- 77
2019-11-26 20:00:00 12 14 Sur 29 Sur 0 -- -- 71
2019-11-26 19:00:00 11.9 9 Sur 38 Oeste 0 -- -- 69
2019-11-26 18:00:00 12.7 10 Oeste 28 Sudoeste 0 -- -- 66
2019-11-26 17:00:00 15.3 16 Sudoeste 37 Oeste 0 -- -- 54
2019-11-26 16:00:00 14.8 13 Oeste 31 Oeste 0 -- -- 59
2019-11-26 15:00:00 16.1 24 Noroeste 37 Noroeste 0 -- -- 53
2019-11-26 14:00:00 16.9 8 Sudeste 16 Sur 0 -- -- 55
2019-11-26 13:00:00 15.3 6 Sur 16 Sur 0 -- -- 59
2019-11-26 12:00:00 11.9 10 Sur 17 Sudoeste 0 -- -- 67
2019-11-26 11:00:00 9.3 7 Sudoeste 13 Sur 0 -- -- 83
2019-11-26 10:00:00 7 8 Sudoeste 14 Sudoeste 0 -- -- 88
2019-11-26 09:00:00 2.1 5 Sur 17 Sudoeste 0 -- -- 98
2019-11-26 08:00:00 1.8 6 Sudoeste 9 Sudoeste 0 -- -- 99
2019-11-26 07:00:00 1.7 0 Calma 6 Nordeste 0 -- -- 98
2019-11-26 06:00:00 2.2 0 Calma 6 Sur 0 -- -- 98
2019-11-26 05:00:00 1.2 0 Calma -- -- 0 -- -- 97
2019-11-26 04:00:00 2.1 0 Calma 8 Sur 0 -- -- 98
2019-11-26 03:00:00 2.2 0 Calma 4 Sur 0 -- -- 96
2019-11-26 02:00:00 3.5 0 Calma 8 Sur 0 -- -- 95
2019-11-26 01:00:00 4.2 0 Calma 8 Sudoeste 0 -- -- 94
2019-11-26 00:00:00 6 5 Sur 13 Sudoeste 0 -- -- 87
2019-11-25 23:00:00 5.9 0 Calma 10 Noroeste 0 -- -- 88
2019-11-25 22:00:00 6.1 0 Calma 6 Sudoeste 0 -- -- 89
2019-11-25 21:00:00 6.7 0 Calma 13 Noroeste 0 -- -- 85
2019-11-25 20:00:00 7.1 9 Oeste 13 Noroeste 0 -- -- 83
2019-11-25 19:00:00 8.1 7 Oeste 11 Noroeste 0 -- -- 81
2019-11-25 18:00:00 10.7 8 Noroeste 19 Noroeste 0 -- -- 68
2019-11-25 17:00:00 11.6 5 Norte 25 Noroeste 0 -- -- 68
2019-11-25 16:00:00 12.4 13 Norte 31 Noroeste 0 -- -- 62
2019-11-25 15:00:00 12.9 23 Noroeste 42 Noroeste 0 -- -- 56
2019-11-25 14:00:00 13.4 21 Norte 35 Norte 0 -- -- 57
2019-11-25 13:00:00 13.1 26 Norte 50 Noroeste 0 -- -- 58
2019-11-25 12:00:00 12.4 22 Norte 37 Noroeste 0 -- -- 64
2019-11-25 11:00:00 11.1 23 Norte 30 Norte 0 -- -- 74
2019-11-25 10:00:00 8.9 10 Norte 19 Norte 0 -- -- 83
2019-11-25 09:00:00 8.6 14 Norte 23 Noroeste 0 -- -- 80
2019-11-25 08:00:00 6.3 11 Norte 18 Nordeste 0 -- -- 87
2019-11-25 07:00:00 5.6 4 Noroeste 10 Sudoeste 0 -- -- 88
2019-11-25 06:00:00 4.6 4 Sur 18 Sur 0 -- -- 88
2019-11-25 05:00:00 4.7 9 Sur 12 Sur 0 -- -- 87
2019-11-25 04:00:00 4.5 4 Sudoeste 10 Sur 0 -- -- 88
2019-11-25 03:00:00 3.7 5 Sur 10 Sudoeste 0 -- -- 87
2019-11-25 02:00:00 2.6 4 Oeste 22 Sudoeste 0 -- -- 87
2019-11-25 01:00:00 2.3 6 Sudoeste 18 Sudoeste 0 -- -- 87
2019-11-25 00:00:00 3 0 Calma 9 Sur 0 -- -- 84
2019-11-24 23:00:00 2.4 2 Sur 10 Sur 0 -- -- 83
2019-11-24 22:00:00 2.6 0 Calma 10 Sudeste 0 -- -- 83
2019-11-24 21:00:00 2.2 5 Sur 8 Sur 0 -- -- 84
2019-11-24 20:00:00 2.9 0 Calma -- -- 0 -- -- 82
2019-11-24 19:00:00 3.8 0 Calma 15 Noroeste 0 -- -- 78
2019-11-24 18:00:00 6 10 Noroeste 23 Noroeste 0 -- -- 70
2019-11-24 17:00:00 8.1 16 Norte 31 Noroeste 0 -- -- 60
2019-11-24 16:00:00 9.1 25 Noroeste 36 Norte 0 -- -- 56
2019-11-24 15:00:00 9.2 25 Norte 41 Noroeste 0 -- -- 56
2019-11-24 14:00:00 8.4 24 Norte 37 Norte 0 -- -- 61
2019-11-24 13:00:00 7.6 27 Norte 42 Norte 0 -- -- 64
2019-11-24 12:00:00 6.5 26 Norte 39 Norte 0 -- -- 69
2019-11-24 11:00:00 6.2 25 Norte 35 Norte 0 -- -- 71
2019-11-24 10:00:00 5.5 16 Norte 25 Norte 0 -- -- 74
2019-11-24 09:00:00 3.6 11 Nordeste 18 Nordeste 0 -- -- 81
2019-11-24 08:00:00 2.1 5 Nordeste 30 Norte 0 -- -- 85
2019-11-24 07:00:00 3.3 14 Norte 24 Nordeste 0 -- -- 80
2019-11-24 06:00:00 3.1 11 Norte 22 Este 0 -- -- 80
2019-11-24 05:00:00 2.7 4 Este 30 Noroeste 0 -- -- 82
2019-11-24 04:00:00 3.9 10 Norte 46 Noroeste 0 -- -- 76
2019-11-24 03:00:00 4.7 30 Noroeste 48 Noroeste 0 -- -- 73
2019-11-24 02:00:00 5 35 Noroeste 51 Noroeste 0 -- -- 72
2019-11-24 01:00:00 4.9 30 Norte 50 Noroeste 0 -- -- 71
2019-11-24 00:00:00 4.6 29 Norte 62 Noroeste 0 -- -- 72
2019-11-23 23:00:00 5.5 43 Noroeste 59 Noroeste 0 -- -- 67
2019-11-23 22:00:00 5.4 40 Noroeste 55 Noroeste 0 -- -- 67
2019-11-23 21:00:00 5.5 30 Noroeste 44 Noroeste 0 -- -- 67
2019-11-23 20:00:00 5.5 22 Norte 46 Noroeste 0 -- -- 67
2019-11-23 19:00:00 5.8 22 Norte 44 Norte 0 -- -- 66
2019-11-23 18:00:00 6.1 31 Norte 53 Noroeste 0 -- -- 63
2019-11-23 17:00:00 7.1 36 Noroeste 69 Noroeste 0 -- -- 56
2019-11-23 16:00:00 8.1 36 Norte 66 Noroeste 0 -- -- 55
2019-11-23 15:00:00 7.9 44 Noroeste 61 Noroeste 0 -- -- 58
2019-11-23 14:00:00 7 37 Noroeste 57 Noroeste 0 -- -- 64
2019-11-23 13:00:00 6.9 34 Noroeste 59 Noroeste 0 -- -- 69
2019-11-23 12:00:00 6.4 38 Noroeste 57 Noroeste 0 -- -- 72
2019-11-23 11:00:00 6 37 Noroeste 58 Norte 0 -- -- 75
2019-11-23 10:00:00 5 32 Noroeste 46 Noroeste 0.2 -- -- 82
2019-11-23 09:00:00 4.6 21 Norte 33 Norte 0 -- -- 81
2019-11-23 08:00:00 4 7 Norte 11 Norte 0.2 -- -- 85
2019-11-23 07:00:00 4 0 Calma 17 Noroeste 0 -- -- 83
2019-11-23 06:00:00 4 3 Noroeste 30 Noroeste 0 -- -- 85
2019-11-23 05:00:00 4.8 6 Noroeste 15 Noroeste 0.2 -- -- 84
2019-11-23 04:00:00 3.5 6 Este 43 Noroeste 1.4 -- -- 92
2019-11-23 03:00:00 5.2 9 Oeste 23 Sudoeste 0.2 -- -- 87
2019-11-23 02:00:00 5.4 14 Sudoeste 26 Sudoeste 0 -- -- 84
2019-11-23 01:00:00 6 5 Sur 20 Oeste 0 -- -- 84
2019-11-23 00:00:00 7.2 10 Sudoeste 27 Oeste 0 -- -- 78
2019-11-22 23:00:00 7.2 12 Oeste 31 Oeste 0 -- -- 80
2019-11-22 22:00:00 7.8 9 Oeste 20 Oeste 0.6 -- -- 87
2019-11-22 21:00:00 7.3 12 Sudoeste 33 Sudoeste 0 -- -- 91
2019-11-22 20:00:00 8.2 18 Sur 44 Sur 0 -- -- 90
2019-11-22 19:00:00 8.2 25 Sur 44 Sur 0 -- -- 94
2019-11-22 18:00:00 8.3 28 Sur 41 Sur 0 -- -- 95
2019-11-22 17:00:00 8.3 18 Sur 35 Sur 1 -- -- 92
2019-11-22 16:00:00 8.3 23 Sur 41 Sur 0.4 -- -- 93
2019-11-22 15:00:00 8.3 26 Sur 40 Sur 0 -- -- 92
2019-11-22 14:00:00 8.8 28 Sur 41 Sur 0 -- -- 87
2019-11-22 13:00:00 8.5 22 Sur 36 Sur 0 -- -- 86
2019-11-22 12:00:00 7.6 24 Sur 45 Sur 0 -- -- 89
2019-11-22 11:00:00 6.7 25 Sur 42 Sur 0 -- -- 90
2019-11-22 10:00:00 5.5 17 Sur 27 Sur 0 -- -- 94
2019-11-22 09:00:00 4.2 9 Sur 17 Sudoeste 0 -- -- 96
2019-11-22 08:00:00 3.6 12 Sudoeste 17 Sudoeste 0 -- -- 96
2019-11-22 07:00:00 3.1 10 Sudoeste 15 Sudoeste 0 -- -- 97
2019-11-22 06:00:00 2.5 4 Sur 10 Sur 0 -- -- 96
2019-11-22 05:00:00 2.7 6 Sudoeste 14 Sur 0 -- -- 96
2019-11-22 04:00:00 2.7 8 Sur 12 Sur 0 -- -- 93
2019-11-22 03:00:00 3 4 Sur 8 Sur 0 -- -- 94
2019-11-22 02:00:00 3.4 4 Sur 10 Sudoeste 0 -- -- 90
2019-11-22 01:00:00 4.2 4 Sur 11 Sudoeste 0 -- -- 87
2019-11-22 00:00:00 5 3 Sur 8 Sudeste 0 -- -- 83
2019-11-21 23:00:00 5.3 0 Calma 7 Sudoeste 0 -- -- 81
2019-11-21 22:00:00 5.3 0 Calma 8 Noroeste 0 -- -- 80
2019-11-21 21:00:00 5.8 3 Oeste 8 Oeste 0 -- -- 78
2019-11-21 20:00:00 6.2 0 Calma 10 Sudoeste 0 -- -- 78
2019-11-21 19:00:00 6.8 4 Sudoeste 9 Sudoeste 0 -- -- 74
2019-11-21 18:00:00 7.7 5 Sudoeste 13 Sur 0 -- -- 70
2019-11-21 17:00:00 8.9 5 Sur 17 Oeste 0 -- -- 64
2019-11-21 16:00:00 9 7 Oeste 19 Oeste 0 -- -- 61
2019-11-21 15:00:00 9.9 7 Oeste 21 Noroeste 0 -- -- 59
2019-11-21 14:00:00 9.2 12 Sudoeste 20 Sudoeste 0 -- -- 61
2019-11-21 13:00:00 9.7 5 Este 16 Sur 0 -- -- 60
2019-11-21 12:00:00 8.4 11 Sur 21 Sur 0 -- -- 68
2019-11-21 11:00:00 6.8 13 Sur 20 Sur 0 -- -- 76
2019-11-21 10:00:00 4.2 6 Sur 11 Sur 0 -- -- 86
2019-11-21 09:00:00 2 0 Calma 10 Sudoeste 0 -- -- 94
2019-11-21 08:00:00 -- -- -- -- -- -- -- -- --
2019-11-21 07:00:00 -- -- -- -- -- -- -- -- --
2019-11-21 06:00:00 -- -- -- -- -- -- -- -- --
2019-11-21 05:00:00 -- -- -- -- -- -- -- -- --
2019-11-21 04:00:00 -- -- -- -- -- -- -- -- --
2019-11-21 03:00:00 -- -- -- -- -- -- -- -- --
2019-11-21 02:00:00 -- -- -- -- -- -- -- -- --
2019-11-21 01:00:00 -- -- -- -- -- -- -- -- --
2019-11-21 00:00:00 -- -- -- -- -- -- -- -- --
2019-11-20 23:00:00 -- -- -- -- -- -- -- -- --
2019-11-20 22:00:00 -- -- -- -- -- -- -- -- --
2019-11-20 21:00:00 -- -- -- -- -- -- -- -- --
2019-11-20 20:00:00 -- -- -- -- -- -- -- -- --
2019-11-20 19:00:00 6.1 3 Sur 16 Oeste 0 -- -- 65
2019-11-20 18:00:00 7 11 Oeste 19 Oeste 0 -- -- 57
2019-11-20 17:00:00 8 8 Oeste 29 Oeste 0 -- -- 47
2019-11-20 16:00:00 10.1 10 Sur 23 Sudeste 0 -- -- 47
2019-11-20 15:00:00 9.9 10 Sur 18 Sur 0 -- -- 48
2019-11-20 14:00:00 9.8 6 Sur 15 Sur 0 -- -- 48
2019-11-20 13:00:00 8.4 8 Sur 14 Sur 0 -- -- 55
2019-11-20 12:00:00 6.4 6 Sur 11 Sur 0 -- -- 65
2019-11-20 11:00:00 2.6 6 Sur 14 Sur 0 -- -- 82
2019-11-20 10:00:00 -0.5 6 Sur 10 Sur 0 -- -- 88
2019-11-20 09:00:00 -2.3 6 Sur 10 Sur 0 -- -- 92
2019-11-20 08:00:00 -2.4 0 Calma 7 Sur 0 -- -- 92
2019-11-20 07:00:00 -2.5 0 Calma 7 Sur 0 -- -- 94
2019-11-20 06:00:00 -2.1 5 Sur 10 Sur 0 -- -- 93
2019-11-20 05:00:00 -1.8 3 Sudoeste 11 Sudoeste 0 -- -- 91
2019-11-20 04:00:00 -1.1 5 Sur 11 Sur 0 -- -- 90
2019-11-20 03:00:00 -0.9 7 Sur 12 Sur 0 -- -- 90
2019-11-20 02:00:00 -1.9 3 Sur 5 Sudoeste 0 -- -- 92
2019-11-20 01:00:00 -1.3 3 Sudoeste 9 Sur 0 -- -- 91
2019-11-20 00:00:00 -1.2 0 Calma -- -- 0 -- -- 91
2019-11-19 23:00:00 -0.6 0 Calma -- -- 0 -- -- 89
2019-11-19 22:00:00 0.5 0 Calma 5 Este 0 -- -- 85
2019-11-19 21:00:00 2.2 4 Norte 11 Norte 0 -- -- 76
2019-11-19 20:00:00 1.7 4 Noroeste 10 Noroeste 0 -- -- 78
2019-11-19 19:00:00 2.7 2 Norte 12 Noroeste 0 -- -- 72
2019-11-19 18:00:00 3.9 4 Noroeste 14 Norte 0 -- -- 70
2019-11-19 17:00:00 7.1 9 Nordeste 22 Norte 0 -- -- 55
2019-11-19 16:00:00 8.4 14 Norte 24 Norte 0 -- -- 49
2019-11-19 15:00:00 8.1 12 Norte 27 Noroeste 0 -- -- 53
2019-11-19 14:00:00 7.3 17 Noroeste 28 Noroeste 0 -- -- 54
2019-11-19 13:00:00 7 16 Norte 26 Norte 0 -- -- 58
2019-11-19 12:00:00 5.9 8 Nordeste 15 Este 0 -- -- 64
2019-11-19 11:00:00 4.4 3 Nordeste 8 Nordeste 0 -- -- 70
2019-11-19 10:00:00 0.9 4 Noroeste 5 Noroeste 0 -- -- 82
2019-11-19 09:00:00 -2.2 0 Calma 4 Sur 0 -- -- 89
2019-11-19 08:00:00 -3.9 0 Calma 8 Sur 0 -- -- 93
2019-11-19 07:00:00 -1.7 3 Noroeste 10 Noroeste 0 -- -- 87
2019-11-19 06:00:00 -3.5 0 Calma -- -- 0 -- -- 94
2019-11-19 05:00:00 -1.6 3 Este 12 Nordeste 0 -- -- 88
2019-11-19 04:00:00 -0.7 6 Norte 18 Norte 0 -- -- 85
2019-11-19 03:00:00 -2.2 2 Nordeste 15 Nordeste 0 -- -- 93
2019-11-19 02:00:00 -0.8 9 Norte 18 Norte 0 -- -- 87
2019-11-19 01:00:00 0.9 9 Norte 18 Norte 0 -- -- 78
2019-11-19 00:00:00 1 11 Norte 26 Norte 0 -- -- 80
2019-11-18 23:00:00 1 6 Norte 12 Norte 0 -- -- 83
2019-11-18 22:00:00 -0.2 7 Nordeste 19 Norte 0 -- -- 87
2019-11-18 21:00:00 1.5 13 Norte 19 Norte 0 -- -- 81
2019-11-18 20:00:00 2.1 9 Norte 18 Norte 0 -- -- 82
2019-11-18 19:00:00 1.7 6 Nordeste 20 Nordeste 0 -- -- 82
2019-11-18 18:00:00 3.8 15 Norte 37 Norte 0 -- -- 70
2019-11-18 17:00:00 5.3 26 Norte 41 Norte 0 -- -- 64
2019-11-18 16:00:00 6.6 28 Norte 41 Norte 0 -- -- 56
2019-11-18 15:00:00 5.9 24 Norte 35 Norte 0 -- -- 62
2019-11-18 14:00:00 4.9 16 Nordeste 36 Norte 0 -- -- 69
2019-11-18 13:00:00 4.6 28 Norte 40 Norte 0 -- -- 69
2019-11-18 12:00:00 4.1 18 Norte 44 Norte 0 -- -- 75
2019-11-18 11:00:00 4 31 Norte 44 Norte 0 -- -- 79
2019-11-18 10:00:00 2.9 23 Norte 37 Norte 0 -- -- 86
2019-11-18 09:00:00 2.4 18 Norte 33 Norte 0 -- -- 85
2019-11-18 08:00:00 2.3 25 Norte 41 Norte 0 -- -- 87
2019-11-18 07:00:00 2.5 25 Norte 36 Norte 0 -- -- 91
2019-11-18 06:00:00 2.5 14 Nordeste 23 Norte 0 -- -- 90
2019-11-18 05:00:00 2.6 12 Norte 22 Norte 0 -- -- 88
2019-11-18 04:00:00 1.5 9 Norte 15 Norte 0 -- -- 90
2019-11-18 03:00:00 1.7 2 Nordeste 13 Nordeste 0 -- -- 88
2019-11-18 02:00:00 2.6 7 Este 25 Noroeste 0 -- -- 84
2019-11-18 01:00:00 3.5 13 Noroeste 18 Noroeste 0 -- -- 82
2019-11-18 00:00:00 4.2 5 Norte 22 Nordeste 0 -- -- 94
2019-11-17 23:00:00 5 10 Norte 21 Norte 0 -- -- 88
2019-11-17 22:00:00 6 2 Noroeste 14 Sudoeste 0 -- -- 79
2019-11-17 21:00:00 6.5 7 Noroeste 22 Noroeste 0 -- -- 75
2019-11-17 20:00:00 6.2 5 Oeste 14 Noroeste 0 -- -- 73
2019-11-17 19:00:00 5.9 3 Sudeste 17 Oeste 0 -- -- 74
2019-11-17 18:00:00 6.5 6 Oeste 29 Oeste 0 -- -- 74
2019-11-17 17:00:00 8.8 13 Oeste 30 Oeste 0 -- -- 63
2019-11-17 16:00:00 10.5 6 Oeste 37 Noroeste 0.2 -- -- 63
2019-11-17 15:00:00 8.3 10 Oeste 25 Noroeste 0 -- -- 65
2019-11-17 14:00:00 9.3 6 Sur 23 Noroeste 0 -- -- 59
2019-11-17 13:00:00 9.5 13 Norte 22 Noroeste 0 -- -- 59
2019-11-17 12:00:00 8.3 4 Este 13 Este 0 -- -- 57
2019-11-17 11:00:00 5.4 4 Sur 11 Sudoeste 0 -- -- 70
2019-11-17 10:00:00 1.9 9 Sur 14 Sur 0 -- -- 80
2019-11-17 09:00:00 -0.3 6 Sur 12 Sur 0 -- -- 85
2019-11-17 08:00:00 -1.5 0 Calma 9 Noroeste 0 -- -- 86
2019-11-17 07:00:00 -1.9 4 Nordeste 9 Sur 0 -- -- 87
2019-11-17 06:00:00 -2.7 0 Calma 5 Nordeste 0 -- -- 94
2019-11-17 05:00:00 -1.5 4 Nordeste 24 Nordeste 0 -- -- 87
2019-11-17 04:00:00 0.4 10 Nordeste 22 Nordeste 0 -- -- 77
2019-11-17 03:00:00 -1.8 0 Calma 3 Sur 0 -- -- 91
2019-11-17 02:00:00 -1 3 Sudeste 14 Noroeste 0 -- -- 85
2019-11-17 01:00:00 1.7 13 Norte 27 Noroeste 0 -- -- 74
2019-11-17 00:00:00 0.9 9 Norte 17 Norte 0 -- -- 76
2019-11-16 23:00:00 0.2 0 Calma 19 Nordeste 0 -- -- 81
2019-11-16 22:00:00 0.4 0 Calma 9 Noroeste 0 -- -- 80
2019-11-16 21:00:00 0.2 2 Sudoeste 12 Norte 0 -- -- 85
2019-11-16 20:00:00 1.6 6 Norte 13 Norte 0 -- -- 78
2019-11-16 19:00:00 2.2 0 Calma 9 Norte 0 -- -- 80
2019-11-16 18:00:00 3.1 5 Nordeste 30 Norte 0 -- -- 80
2019-11-16 17:00:00 6.1 22 Norte 32 Noroeste 0 -- -- 56
2019-11-16 16:00:00 6.3 19 Norte 30 Noroeste 0 -- -- 57
2019-11-16 15:00:00 6.3 22 Norte 32 Noroeste 0 -- -- 58
2019-11-16 14:00:00 6.8 12 Norte 31 Nordeste 0 -- -- 58
2019-11-16 13:00:00 5.9 18 Norte 31 Nordeste 0 -- -- 66
2019-11-16 12:00:00 5 11 Nordeste 19 Nordeste 0 -- -- 72
2019-11-16 11:00:00 4 10 Nordeste 19 Nordeste 0 -- -- 79
2019-11-16 10:00:00 2.2 11 Nordeste 15 Nordeste 0.2 -- -- 84
2019-11-16 09:00:00 -0.1 8 Norte 21 Norte 0 -- -- 90
2019-11-16 08:00:00 0.2 9 Norte 23 Norte 0 -- -- 90
2019-11-16 07:00:00 -0.3 9 Norte 15 Norte 0.2 -- -- 92
2019-11-16 06:00:00 -0.1 8 Norte 27 Norte 0 -- -- 92
2019-11-16 05:00:00 0.3 15 Norte 27 Norte 0.2 -- -- 96
2019-11-16 04:00:00 0.7 10 Norte 14 Norte 0 -- -- 94
2019-11-16 03:00:00 0.1 4 Este 19 Norte 0 -- -- 91
2019-11-16 02:00:00 -0.4 3 Nordeste 11 Norte 0 -- -- 93
2019-11-16 01:00:00 0.8 6 Nordeste 21 Norte 0 -- -- 91
2019-11-16 00:00:00 1.7 10 Norte 16 Nordeste 0 -- -- 90
2019-11-15 23:00:00 1.9 11 Nordeste 17 Nordeste 0 -- -- 88
2019-11-15 22:00:00 2.1 4 Nordeste 16 Noroeste 0 -- -- 85
2019-11-15 21:00:00 2.3 7 Norte 15 Norte 0 -- -- 82
2019-11-15 20:00:00 2.6 5 Norte 15 Norte 0 -- -- 79
2019-11-15 19:00:00 3.8 9 Norte 29 Noroeste 0 -- -- 72
2019-11-15 18:00:00 4.2 17 Noroeste 31 Noroeste 0 -- -- 68
2019-11-15 17:00:00 4.9 23 Norte 39 Noroeste 0 -- -- 62
2019-11-15 16:00:00 5.4 30 Noroeste 42 Noroeste 0 -- -- 70
2019-11-15 15:00:00 5.7 28 Norte 52 Noroeste 0 -- -- 63
2019-11-15 14:00:00 6.5 30 Noroeste 42 Noroeste 0 -- -- 63
2019-11-15 13:00:00 6.1 28 Noroeste 40 Noroeste 0 -- -- 63
2019-11-15 12:00:00 5.4 24 Noroeste 42 Noroeste 0 -- -- 70
2019-11-15 11:00:00 4.5 25 Noroeste 42 Noroeste 0 -- -- 68
2019-11-15 10:00:00 2.6 4 Sur 8 Sudoeste 0 -- -- 79
2019-11-15 09:00:00 0 0 Calma 12 Nordeste 0 -- -- 87
2019-11-15 08:00:00 -0.6 6 Norte 17 Norte 0 -- -- 86
2019-11-15 07:00:00 -0.7 8 Nordeste 18 Norte 0 -- -- 87
2019-11-15 06:00:00 0.2 13 Norte 33 Noroeste 0 -- -- 83
2019-11-15 05:00:00 0.2 10 Norte 27 Norte 0 -- -- 90
2019-11-15 04:00:00 1 13 Norte 21 Norte 0.2 -- -- 87
2019-11-15 03:00:00 0.7 5 Norte 21 Noroeste 0.2 -- -- 89
2019-11-15 02:00:00 1.4 17 Noroeste 26 Noroeste 0 -- -- 79
2019-11-15 01:00:00 1.2 15 Norte 22 Norte 0.2 -- -- 82
2019-11-15 00:00:00 0.4 13 Norte 19 Nordeste 0.4 -- -- 96
2019-11-14 23:00:00 0.1 0 Calma 12 Sur 0 -- -- 97
2019-11-14 22:00:00 0.7 5 Sur 13 Sur 0 -- -- 97
2019-11-14 21:00:00 0.4 7 Sudoeste 19 Sudoeste 0.4 -- -- 97
2019-11-14 20:00:00 0.6 15 Sur 27 Sudoeste 0.6 -- -- 95
2019-11-14 19:00:00 1.9 5 Sudoeste 19 Oeste 0 -- -- 84
2019-11-14 18:00:00 3.5 0 Calma 23 Noroeste 0 -- -- 72
2019-11-14 17:00:00 4.3 19 Noroeste 37 Noroeste 0 -- -- 68
2019-11-14 16:00:00 7.3 9 Noroeste 43 Norte 0 -- -- 53
2019-11-14 15:00:00 6.9 24 Norte 43 Norte 0 -- -- 54
2019-11-14 14:00:00 6.3 21 Noroeste 40 Norte 0 -- -- 61
2019-11-14 13:00:00 6.1 3 Este 21 Nordeste 0.2 -- -- 62
2019-11-14 12:00:00 3.4 7 Nordeste 21 Noroeste 0 -- -- 81
2019-11-14 11:00:00 2.1 14 Norte 37 Norte 0.2 -- -- 90
2019-11-14 10:00:00 3 21 Norte 57 Norte 1 -- -- 86
2019-11-14 09:00:00 5.4 10 Oeste 41 Oeste 0 -- -- 84
2019-11-14 08:00:00 7 20 Oeste 50 Oeste 0 -- -- 70
2019-11-14 07:00:00 7.1 16 Oeste 37 Oeste 0 -- -- 72
2019-11-14 06:00:00 7.9 14 Oeste 41 Oeste 0 -- -- 68
2019-11-14 05:00:00 8.5 14 Oeste 32 Oeste 0 -- -- 67
2019-11-14 04:00:00 7.5 4 Nordeste 17 Sudeste 0 -- -- 74
2019-11-14 03:00:00 5.6 0 Calma 9 Sudeste 0 -- -- 84
2019-11-14 02:00:00 3.2 0 Calma 7 Sur 0 -- -- 90
2019-11-14 01:00:00 2.7 6 Sur 15 Sur 0 -- -- 89
2019-11-14 00:00:00 3.3 8 Sudoeste 14 Sudoeste 0 -- -- 86
2019-11-13 23:00:00 4.1 12 Sudoeste 21 Sur 0 -- -- 82
2019-11-13 22:00:00 3.8 10 Sudoeste 14 Sudoeste 0 -- -- 83
2019-11-13 21:00:00 3.7 0 Calma 12 Noroeste 0 -- -- 87
2019-11-13 20:00:00 5.8 10 Noroeste 15 Noroeste 0 -- -- 77
2019-11-13 19:00:00 6.4 8 Noroeste 12 Noroeste 0 -- -- 76
2019-11-13 18:00:00 8.1 8 Norte 17 Norte 0 -- -- 70
2019-11-13 17:00:00 10.1 13 Norte 33 Norte 0 -- -- 58
2019-11-13 16:00:00 11 22 Norte 32 Norte 0 -- -- 56
2019-11-13 15:00:00 9.8 20 Norte 36 Norte 0 -- -- 68
2019-11-13 14:00:00 10.1 26 Norte 46 Norte 0 -- -- 70
2019-11-13 13:00:00 9.1 29 Norte 49 Norte 0 -- -- 75
2019-11-13 12:00:00 8.8 27 Norte 39 Norte 0 -- -- 81
2019-11-13 11:00:00 6.7 23 Norte 42 Norte 0 -- -- 91
2019-11-13 10:00:00 7.1 30 Norte 57 Norte 0.8 -- -- 93
2019-11-13 09:00:00 6.9 8 Nordeste 24 Norte 0.2 -- -- 99
2019-11-13 08:00:00 5.7 2 Sur 14 Sur 0 -- -- 95
2019-11-13 07:00:00 5.4 0 Calma 21 Sudoeste 0 -- -- 96
2019-11-13 06:00:00 5.2 5 Sudoeste 15 Sudoeste 0 -- -- 95
2019-11-13 05:00:00 5.5 8 Sur 13 Sur 0.2 -- -- 94
2019-11-13 04:00:00 5.3 0 Calma 10 Sudoeste 0.6 -- -- 93
2019-11-13 03:00:00 4.6 4 Sur 13 Sur 0 -- -- 88
2019-11-13 02:00:00 4.4 6 Sur 13 Sur 0 -- -- 90
2019-11-13 01:00:00 4.3 0 Calma 10 Sudoeste 0 -- -- 89
2019-11-13 00:00:00 4.4 0 Calma 12 Sur 0 -- -- 89
2019-11-12 23:00:00 4.2 0 Calma 10 Sur 0 -- -- 84
2019-11-12 22:00:00 3.8 5 Sur 14 Sudoeste 0 -- -- 83
2019-11-12 21:00:00 3.6 0 Calma 23 Noroeste 0 -- -- 81
2019-11-12 20:00:00 5 14 Noroeste 19 Noroeste 0 -- -- 74
2019-11-12 19:00:00 5.5 14 Norte 22 Norte 0 -- -- 71
2019-11-12 18:00:00 6.6 9 Norte 23 Norte 0 -- -- 67
2019-11-12 17:00:00 7.7 14 Norte 34 Norte 0 -- -- 62
2019-11-12 16:00:00 8.2 22 Norte 34 Norte 0 -- -- 60
2019-11-12 15:00:00 8.4 22 Norte 43 Norte 0 -- -- 56
2019-11-12 14:00:00 8.7 32 Norte 45 Norte 0 -- -- 55
2019-11-12 13:00:00 7.7 24 Norte 45 Norte 0 -- -- 61
2019-11-12 12:00:00 7.8 30 Norte 48 Norte 0 -- -- 60
2019-11-12 11:00:00 7.2 25 Norte 36 Norte 0 -- -- 69
2019-11-12 10:00:00 4.2 19 Norte 29 Norte 0 -- -- 81
2019-11-12 09:00:00 2.4 17 Norte 24 Norte 0 -- -- 86
2019-11-12 08:00:00 0.7 15 Norte 22 Norte 0 -- -- 91
2019-11-12 07:00:00 0.2 13 Norte 32 Norte 0 -- -- 90
2019-11-12 06:00:00 1.4 13 Norte 40 Noroeste 0 -- -- 83
2019-11-12 05:00:00 2.7 29 Norte 41 Noroeste 0 -- -- 75
2019-11-12 04:00:00 3.1 28 Norte 42 Norte 0 -- -- 73
2019-11-12 03:00:00 1.2 10 Norte 23 Nordeste 0 -- -- 89
2019-11-12 02:00:00 1.9 12 Nordeste 39 Norte 0 -- -- 84
2019-11-12 01:00:00 2.8 28 Norte 41 Norte 0 -- -- 79
2019-11-12 00:00:00 1.7 14 Nordeste 42 Norte 0 -- -- 86
2019-11-11 23:00:00 3.5 33 Norte 44 Norte 0 -- -- 78
2019-11-11 22:00:00 3.5 26 Norte 49 Norte 0 -- -- 81
2019-11-11 21:00:00 4 26 Norte 45 Norte 0 -- -- 80
2019-11-11 20:00:00 5 31 Norte 48 Norte 0 -- -- 78
2019-11-11 19:00:00 5.3 20 Norte 48 Norte 0 -- -- 94
2019-11-11 18:00:00 7.5 30 Norte 44 Norte 0 -- -- 79
2019-11-11 17:00:00 7.5 18 Norte 36 Norte 0 -- -- 83
2019-11-11 16:00:00 7.4 21 Norte 34 Norte 0 -- -- 84
2019-11-11 15:00:00 6.4 19 Norte 34 Norte 0.4 -- -- 88
2019-11-11 14:00:00 6.5 28 Norte 37 Noroeste 0 -- -- 79
2019-11-11 13:00:00 7.8 22 Norte 40 Norte 0 -- -- 69
2019-11-11 12:00:00 7.5 27 Norte 39 Norte 0 -- -- 66
2019-11-11 11:00:00 6.1 18 Norte 27 Nordeste 0 -- -- 73
2019-11-11 10:00:00 4.3 12 Norte 18 Norte 0 -- -- 80
2019-11-11 09:00:00 3 14 Norte 25 Norte 0 -- -- 86
2019-11-11 08:00:00 2.6 19 Norte 31 Norte 0 -- -- 84
2019-11-11 07:00:00 1.3 5 Oeste 16 Norte 0 -- -- 90
2019-11-11 06:00:00 1.3 9 Norte 23 Norte 0 -- -- 88
2019-11-11 05:00:00 0.8 17 Norte 36 Norte 0 -- -- 90
2019-11-11 04:00:00 1.6 17 Norte 35 Norte 0 -- -- 84
2019-11-11 03:00:00 1.4 19 Norte 43 Noroeste 0 -- -- 83
2019-11-11 02:00:00 2.2 28 Norte 41 Noroeste 0 -- -- 77
2019-11-11 01:00:00 1.4 15 Norte 30 Noroeste 0 -- -- 82
2019-11-11 00:00:00 1.8 22 Norte 39 Noroeste 0 -- -- 79